sensor_id;sensor_type;location;lat;lon;timestamp;temperature;humidity
3023;DHT22;1521;53.584;9.938;2023-04-30T00:01:43;4.10;99.90
3023;DHT22;1521;53.584;9.938;2023-04-30T00:04:09;4.10;99.90
3023;DHT22;1521;53.584;9.938;2023-04-30T00:06:35;4.00;1.00
3023;DHT22;1521;53.584;9.938;2023-04-30T00:09:00;4.00;1.00
3023;DHT22;1521;53.584;9.938;2023-04-30T00:11:26;4.00;1.00
3023;DHT22;1521;53.584;9.938;2023-04-30T00:13:52;4.00;1.00
3023;DHT22;1521;53.584;9.938;2023-04-30T00:16:18;3.90;1.00
3023;DHT22;1521;53.584;9.938;2023-04-30T00:18:43;3.90;1.00
3023;DHT22;1521;53.584;9.938;2023-04-30T00:21:09;3.90;60.40
3023;DHT22;1521;53.584;9.938;2023-04-30T00:23:34;3.90;99.90
3023;DHT22;1521;53.584;9.938;2023-04-30T00:26:00;3.90;99.90
3023;DHT22;1521;53.584;9.938;2023-04-30T00:28:26;3.90;99.90
3023;DHT22;1521;53.584;9.938;2023-04-30T00:30:52;3.80;99.90
3023;DHT22;1521;53.584;9.938;2023-04-30T00:33:17;3.80;99.90
3023;DHT22;1521;53.584;9.938;2023-04-30T00:35:43;3.80;99.90
3023;DHT22;1521;53.584;9.938;2023-04-30T00:38:08;3.80;99.90
3023;DHT22;1521;53.584;9.938;2023-04-30T00:40:34;3.70;81.30
3023;DHT22;1521;53.584;9.938;2023-04-30T00:43:00;3.70;99.90
3023;DHT22;1521;53.584;9.938;2023-04-30T00:45:26;3.70;1.00
3023;DHT22;1521;53.584;9.938;2023-04-30T00:47:52;3.70;99.90
3023;DHT22;1521;53.584;9.938;2023-04-30T00:50:17;3.70;99.90
3023;DHT22;1521;53.584;9.938;2023-04-30T00:52:43;3.60;99.90
3023;DHT22;1521;53.584;9.938;2023-04-30T00:55:10;3.60;99.90
3023;DHT22;1521;53.584;9.938;2023-04-30T00:57:37;3.60;99.90
3023;DHT22;1521;53.584;9.938;2023-04-30T01:00:04;3.60;1.00
3023;DHT22;1521;53.584;9.938;2023-04-30T01:02:30;3.50;99.90
3023;DHT22;1521;53.584;9.938;2023-04-30T01:04:56;3.50;99.90
3023;DHT22;1521;53.584;9.938;2023-04-30T01:07:23;3.50;1.00
3023;DHT22;1521;53.584;9.938;2023-04-30T01:09:49;3.40;1.00
3023;DHT22;1521;53.584;9.938;2023-04-30T01:17:58;3.40;1.00
3023;DHT22;1521;53.584;9.938;2023-04-30T01:20:27;3.30;1.00
3023;DHT22;1521;53.584;9.938;2023-04-30T01:23:10;3.30;16.50
3023;DHT22;1521;53.584;9.938;2023-04-30T01:28:24;3.30;57.10
3023;DHT22;1521;53.584;9.938;2023-04-30T01:30:51;3.20;70.20
3023;DHT22;1521;53.584;9.938;2023-04-30T01:33:17;3.20;99.90
3023;DHT22;1521;53.584;9.938;2023-04-30T01:41:02;3.20;1.00
3023;DHT22;1521;53.584;9.938;2023-04-30T01:46:23;3.10;99.90
3023;DHT22;1521;53.584;9.938;2023-04-30T01:51:42;3.00;1.00
3023;DHT22;1521;53.584;9.938;2023-04-30T01:57:31;3.00;1.00
3023;DHT22;1521;53.584;9.938;2023-04-30T01:59:57;3.00;82.20
3023;DHT22;1521;53.584;9.938;2023-04-30T02:02:23;3.00;99.90
3023;DHT22;1521;53.584;9.938;2023-04-30T02:04:48;2.90;99.90
3023;DHT22;1521;53.584;9.938;2023-04-30T02:07:22;2.90;99.90
3023;DHT22;1521;53.584;9.938;2023-04-30T02:09:51;2.90;99.90
3023;DHT22;1521;53.584;9.938;2023-04-30T02:12:17;2.90;99.90
3023;DHT22;1521;53.584;9.938;2023-04-30T02:14:42;2.90;99.90
3023;DHT22;1521;53.584;9.938;2023-04-30T02:17:08;2.90;99.90
3023;DHT22;1521;53.584;9.938;2023-04-30T02:19:33;3.00;99.90
3023;DHT22;1521;53.584;9.938;2023-04-30T02:21:59;3.00;45.00
3023;DHT22;1521;53.584;9.938;2023-04-30T02:24:25;3.00;1.00
3023;DHT22;1521;53.584;9.938;2023-04-30T02:26:50;2.90;1.00
3023;DHT22;1521;53.584;9.938;2023-04-30T02:29:16;2.90;1.00
3023;DHT22;1521;53.584;9.938;2023-04-30T02:31:41;2.90;1.00
3023;DHT22;1521;53.584;9.938;2023-04-30T02:34:07;2.90;1.00
3023;DHT22;1521;53.584;9.938;2023-04-30T02:36:32;2.90;1.00
3023;DHT22;1521;53.584;9.938;2023-04-30T02:39:01;2.80;1.00
3023;DHT22;1521;53.584;9.938;2023-04-30T02:41:26;2.80;99.90
3023;DHT22;1521;53.584;9.938;2023-04-30T02:43:52;2.80;99.90
3023;DHT22;1521;53.584;9.938;2023-04-30T02:46:17;2.80;99.90
3023;DHT22;1521;53.584;9.938;2023-04-30T02:48:43;2.70;1.00
3023;DHT22;1521;53.584;9.938;2023-04-30T02:51:09;2.70;1.00
3023;DHT22;1521;53.584;9.938;2023-04-30T02:53:34;2.70;1.00
3023;DHT22;1521;53.584;9.938;2023-04-30T02:56:00;2.70;1.00
3023;DHT22;1521;53.584;9.938;2023-04-30T02:58:26;2.70;1.00
3023;DHT22;1521;53.584;9.938;2023-04-30T03:00:51;2.70;1.00
3023;DHT22;1521;53.584;9.938;2023-04-30T03:03:26;2.70;1.00
3023;DHT22;1521;53.584;9.938;2023-04-30T03:05:51;2.70;1.00
3023;DHT22;1521;53.584;9.938;2023-04-30T03:08:17;2.60;1.00
3023;DHT22;1521;53.584;9.938;2023-04-30T03:10:43;2.60;99.90
3023;DHT22;1521;53.584;9.938;2023-04-30T03:13:08;2.60;1.00
3023;DHT22;1521;53.584;9.938;2023-04-30T03:15:34;2.60;1.00
3023;DHT22;1521;53.584;9.938;2023-04-30T03:17:59;2.60;1.00
3023;DHT22;1521;53.584;9.938;2023-04-30T03:20:25;2.60;1.00
3023;DHT22;1521;53.584;9.938;2023-04-30T03:22:50;2.50;1.00
3023;DHT22;1521;53.584;9.938;2023-04-30T03:25:16;2.50;1.00
3023;DHT22;1521;53.584;9.938;2023-04-30T03:27:42;2.50;13.10
3023;DHT22;1521;53.584;9.938;2023-04-30T03:30:07;2.50;85.60
3023;DHT22;1521;53.584;9.938;2023-04-30T03:32:33;2.50;73.40
3023;DHT22;1521;53.584;9.938;2023-04-30T03:34:59;2.50;99.90
3023;DHT22;1521;53.584;9.938;2023-04-30T03:37:24;2.50;99.90
3023;DHT22;1521;53.584;9.938;2023-04-30T03:39:50;2.50;99.90
3023;DHT22;1521;53.584;9.938;2023-04-30T03:42:15;2.50;99.90
3023;DHT22;1521;53.584;9.938;2023-04-30T03:44:41;2.50;99.90
3023;DHT22;1521;53.584;9.938;2023-04-30T03:47:07;2.50;99.90
3023;DHT22;1521;53.584;9.938;2023-04-30T03:49:32;2.50;99.90
3023;DHT22;1521;53.584;9.938;2023-04-30T03:51:58;2.50;99.90
3023;DHT22;1521;53.584;9.938;2023-04-30T03:54:23;2.50;99.90
3023;DHT22;1521;53.584;9.938;2023-04-30T03:56:49;2.50;99.90
3023;DHT22;1521;53.584;9.938;2023-04-30T03:59:15;2.60;99.90
3023;DHT22;1521;53.584;9.938;2023-04-30T04:01:41;2.60;99.90
3023;DHT22;1521;53.584;9.938;2023-04-30T04:04:07;2.60;99.90
3023;DHT22;1521;53.584;9.938;2023-04-30T04:06:33;2.60;99.90
3023;DHT22;1521;53.584;9.938;2023-04-30T04:08:59;2.70;99.90
3023;DHT22;1521;53.584;9.938;2023-04-30T04:11:24;2.70;99.90
3023;DHT22;1521;53.584;9.938;2023-04-30T04:13:50;2.80;99.90
3023;DHT22;1521;53.584;9.938;2023-04-30T04:16:16;2.80;99.90
3023;DHT22;1521;53.584;9.938;2023-04-30T04:18:41;2.90;99.90
3023;DHT22;1521;53.584;9.938;2023-04-30T04:21:07;3.00;1.00
3023;DHT22;1521;53.584;9.938;2023-04-30T04:23:33;3.00;1.00
3023;DHT22;1521;53.584;9.938;2023-04-30T04:25:58;3.10;1.00
3023;DHT22;1521;53.584;9.938;2023-04-30T04:28:24;3.10;99.90
3023;DHT22;1521;53.584;9.938;2023-04-30T04:30:50;3.20;99.90
3023;DHT22;1521;53.584;9.938;2023-04-30T04:33:17;3.20;1.00
3023;DHT22;1521;53.584;9.938;2023-04-30T04:35:42;3.30;1.00
3023;DHT22;1521;53.584;9.938;2023-04-30T04:38:08;3.30;99.90
3023;DHT22;1521;53.584;9.938;2023-04-30T04:40:34;3.40;99.90
3023;DHT22;1521;53.584;9.938;2023-04-30T04:42:59;3.40;99.90
3023;DHT22;1521;53.584;9.938;2023-04-30T04:45:25;3.50;62.20
3023;DHT22;1521;53.584;9.938;2023-04-30T04:47:51;3.60;1.00
3023;DHT22;1521;53.584;9.938;2023-04-30T04:50:16;3.70;1.00
3023;DHT22;1521;53.584;9.938;2023-04-30T04:52:42;3.70;1.00
3023;DHT22;1521;53.584;9.938;2023-04-30T04:55:08;3.80;99.90
3023;DHT22;1521;53.584;9.938;2023-04-30T04:57:34;3.90;99.90
3023;DHT22;1521;53.584;9.938;2023-04-30T04:59:59;4.00;99.90
3023;DHT22;1521;53.584;9.938;2023-04-30T05:02:25;4.10;99.90
3023;DHT22;1521;53.584;9.938;2023-04-30T05:04:50;4.30;99.90
3023;DHT22;1521;53.584;9.938;2023-04-30T05:07:16;4.40;93.80
3023;DHT22;1521;53.584;9.938;2023-04-30T05:09:45;4.50;1.00
3023;DHT22;1521;53.584;9.938;2023-04-30T05:12:12;4.60;1.00
3023;DHT22;1521;53.584;9.938;2023-04-30T05:14:38;4.70;1.00
3023;DHT22;1521;53.584;9.938;2023-04-30T05:17:03;4.80;1.00
3023;DHT22;1521;53.584;9.938;2023-04-30T05:19:29;5.00;1.00
3023;DHT22;1521;53.584;9.938;2023-04-30T05:21:55;5.10;1.00
3023;DHT22;1521;53.584;9.938;2023-04-30T05:24:20;5.20;1.00
3023;DHT22;1521;53.584;9.938;2023-04-30T05:26:46;5.30;99.90
3023;DHT22;1521;53.584;9.938;2023-04-30T05:29:11;5.40;99.90
3023;DHT22;1521;53.584;9.938;2023-04-30T05:31:37;5.60;99.90
3023;DHT22;1521;53.584;9.938;2023-04-30T05:34:03;5.70;99.90
3023;DHT22;1521;53.584;9.938;2023-04-30T05:36:28;5.90;99.90
3023;DHT22;1521;53.584;9.938;2023-04-30T05:38:54;6.10;99.90
3023;DHT22;1521;53.584;9.938;2023-04-30T05:41:20;6.30;99.90
3023;DHT22;1521;53.584;9.938;2023-04-30T05:43:46;6.50;99.90
3023;DHT22;1521;53.584;9.938;2023-04-30T05:46:12;6.70;47.70
3023;DHT22;1521;53.584;9.938;2023-04-30T05:48:38;6.90;10.80
3023;DHT22;1521;53.584;9.938;2023-04-30T05:51:04;7.20;1.00
3023;DHT22;1521;53.584;9.938;2023-04-30T05:53:32;7.50;1.00
3023;DHT22;1521;53.584;9.938;2023-04-30T05:55:58;7.70;1.00
3023;DHT22;1521;53.584;9.938;2023-04-30T05:58:24;8.00;1.00
3023;DHT22;1521;53.584;9.938;2023-04-30T06:00:50;8.20;1.00
3023;DHT22;1521;53.584;9.938;2023-04-30T06:03:19;8.40;1.00
3023;DHT22;1521;53.584;9.938;2023-04-30T06:05:45;8.60;1.00
3023;DHT22;1521;53.584;9.938;2023-04-30T06:08:11;8.70;1.00
3023;DHT22;1521;53.584;9.938;2023-04-30T06:10:37;8.90;1.00
3023;DHT22;1521;53.584;9.938;2023-04-30T06:13:03;9.10;1.00
3023;DHT22;1521;53.584;9.938;2023-04-30T06:15:29;9.20;1.00
3023;DHT22;1521;53.584;9.938;2023-04-30T06:17:55;9.30;1.00
3023;DHT22;1521;53.584;9.938;2023-04-30T06:20:20;9.50;1.00
3023;DHT22;1521;53.584;9.938;2023-04-30T06:22:46;9.70;1.00
3023;DHT22;1521;53.584;9.938;2023-04-30T06:25:11;9.90;1.00
3023;DHT22;1521;53.584;9.938;2023-04-30T06:27:37;10.00;1.00
3023;DHT22;1521;53.584;9.938;2023-04-30T06:30:03;10.00;1.00
3023;DHT22;1521;53.584;9.938;2023-04-30T06:32:28;10.00;1.00
3023;DHT22;1521;53.584;9.938;2023-04-30T06:34:54;10.20;1.00
3023;DHT22;1521;53.584;9.938;2023-04-30T06:37:20;10.40;1.00
3023;DHT22;1521;53.584;9.938;2023-04-30T06:39:45;10.70;1.00
3023;DHT22;1521;53.584;9.938;2023-04-30T06:42:11;11.00;1.00
3023;DHT22;1521;53.584;9.938;2023-04-30T06:44:37;11.20;1.00
3023;DHT22;1521;53.584;9.938;2023-04-30T06:47:02;11.10;1.00
3023;DHT22;1521;53.584;9.938;2023-04-30T06:49:28;11.20;1.00
3023;DHT22;1521;53.584;9.938;2023-04-30T06:51:53;11.30;1.00
3023;DHT22;1521;53.584;9.938;2023-04-30T06:54:20;11.10;1.00
3023;DHT22;1521;53.584;9.938;2023-04-30T06:56:47;10.60;1.00
3023;DHT22;1521;53.584;9.938;2023-04-30T06:59:12;10.40;1.00
3023;DHT22;1521;53.584;9.938;2023-04-30T07:01:38;10.40;1.00
3023;DHT22;1521;53.584;9.938;2023-04-30T07:04:05;10.30;1.00
3023;DHT22;1521;53.584;9.938;2023-04-30T07:06:30;10.80;1.00
3023;DHT22;1521;53.584;9.938;2023-04-30T07:08:56;11.20;1.00
3023;DHT22;1521;53.584;9.938;2023-04-30T07:11:22;11.40;1.00
3023;DHT22;1521;53.584;9.938;2023-04-30T07:13:47;11.20;1.00
3023;DHT22;1521;53.584;9.938;2023-04-30T07:16:13;11.10;1.00
3023;DHT22;1521;53.584;9.938;2023-04-30T07:18:41;11.50;1.00
3023;DHT22;1521;53.584;9.938;2023-04-30T07:21:07;11.90;1.00
3023;DHT22;1521;53.584;9.938;2023-04-30T07:23:33;12.30;1.00
3023;DHT22;1521;53.584;9.938;2023-04-30T07:25:59;12.50;1.00
3023;DHT22;1521;53.584;9.938;2023-04-30T07:28:25;12.60;1.00
3023;DHT22;1521;53.584;9.938;2023-04-30T07:30:50;12.50;1.00
3023;DHT22;1521;53.584;9.938;2023-04-30T07:33:16;13.20;1.00
3023;DHT22;1521;53.584;9.938;2023-04-30T07:35:42;13.90;1.00
3023;DHT22;1521;53.584;9.938;2023-04-30T07:38:07;14.20;1.00
3023;DHT22;1521;53.584;9.938;2023-04-30T07:40:33;14.30;1.00
3023;DHT22;1521;53.584;9.938;2023-04-30T07:42:59;14.00;1.00
3023;DHT22;1521;53.584;9.938;2023-04-30T07:45:24;13.20;1.00
3023;DHT22;1521;53.584;9.938;2023-04-30T07:47:50;12.70;1.00
3023;DHT22;1521;53.584;9.938;2023-04-30T07:50:15;12.70;1.00
3023;DHT22;1521;53.584;9.938;2023-04-30T07:52:41;13.00;1.00
3023;DHT22;1521;53.584;9.938;2023-04-30T07:55:07;13.30;1.00
3023;DHT22;1521;53.584;9.938;2023-04-30T07:57:33;13.00;1.00
3023;DHT22;1521;53.584;9.938;2023-04-30T07:59:58;13.20;1.00
3023;DHT22;1521;53.584;9.938;2023-04-30T08:02:24;13.40;1.00
3023;DHT22;1521;53.584;9.938;2023-04-30T08:04:49;14.00;1.00
3023;DHT22;1521;53.584;9.938;2023-04-30T08:07:16;14.20;1.00
3023;DHT22;1521;53.584;9.938;2023-04-30T08:09:41;14.10;1.00
3023;DHT22;1521;53.584;9.938;2023-04-30T08:12:08;14.00;1.00
3023;DHT22;1521;53.584;9.938;2023-04-30T08:14:34;13.70;1.00
3023;DHT22;1521;53.584;9.938;2023-04-30T08:16:59;14.00;1.00
3023;DHT22;1521;53.584;9.938;2023-04-30T08:19:27;14.50;1.00
3023;DHT22;1521;53.584;9.938;2023-04-30T08:21:52;14.60;1.00
3023;DHT22;1521;53.584;9.938;2023-04-30T08:24:18;13.90;1.00
3023;DHT22;1521;53.584;9.938;2023-04-30T08:26:43;13.00;1.00
3023;DHT22;1521;53.584;9.938;2023-04-30T08:29:09;12.90;1.00
3023;DHT22;1521;53.584;9.938;2023-04-30T08:31:35;13.30;1.00
3023;DHT22;1521;53.584;9.938;2023-04-30T08:34:00;14.00;1.00
3023;DHT22;1521;53.584;9.938;2023-04-30T08:36:26;14.40;1.00
3023;DHT22;1521;53.584;9.938;2023-04-30T08:38:52;14.60;1.00
3023;DHT22;1521;53.584;9.938;2023-04-30T08:41:19;14.50;1.00
3023;DHT22;1521;53.584;9.938;2023-04-30T08:43:47;14.30;1.00
3023;DHT22;1521;53.584;9.938;2023-04-30T08:46:17;14.70;1.00
3023;DHT22;1521;53.584;9.938;2023-04-30T08:48:44;15.50;1.00
3023;DHT22;1521;53.584;9.938;2023-04-30T08:51:10;15.70;1.00
3023;DHT22;1521;53.584;9.938;2023-04-30T08:53:36;16.00;1.00
3023;DHT22;1521;53.584;9.938;2023-04-30T08:56:05;16.20;1.00
3023;DHT22;1521;53.584;9.938;2023-04-30T08:58:31;16.60;1.00
3023;DHT22;1521;53.584;9.938;2023-04-30T09:01:00;17.00;1.00
3023;DHT22;1521;53.584;9.938;2023-04-30T09:03:26;17.30;1.00
3023;DHT22;1521;53.584;9.938;2023-04-30T09:05:53;17.50;1.00
3023;DHT22;1521;53.584;9.938;2023-04-30T09:08:40;17.40;1.00
3023;DHT22;1521;53.584;9.938;2023-04-30T09:11:26;17.30;1.00
3023;DHT22;1521;53.584;9.938;2023-04-30T09:13:59;17.00;1.00
3023;DHT22;1521;53.584;9.938;2023-04-30T09:16:27;17.00;1.00
3023;DHT22;1521;53.584;9.938;2023-04-30T09:18:55;17.30;1.00
3023;DHT22;1521;53.584;9.938;2023-04-30T09:21:34;17.20;1.00
3023;DHT22;1521;53.584;9.938;2023-04-30T09:24:02;17.30;1.00
3023;DHT22;1521;53.584;9.938;2023-04-30T09:26:36;17.30;1.00
3023;DHT22;1521;53.584;9.938;2023-04-30T09:29:02;16.90;1.00
3023;DHT22;1521;53.584;9.938;2023-04-30T09:31:33;16.80;1.00
3023;DHT22;1521;53.584;9.938;2023-04-30T09:33:59;16.80;1.00
3023;DHT22;1521;53.584;9.938;2023-04-30T09:36:24;17.30;1.00
3023;DHT22;1521;53.584;9.938;2023-04-30T09:38:50;17.30;1.00
3023;DHT22;1521;53.584;9.938;2023-04-30T09:41:24;17.30;1.00
3023;DHT22;1521;53.584;9.938;2023-04-30T09:43:51;17.40;1.00
3023;DHT22;1521;53.584;9.938;2023-04-30T09:46:18;17.30;1.00
3023;DHT22;1521;53.584;9.938;2023-04-30T09:48:44;17.10;1.00
3023;DHT22;1521;53.584;9.938;2023-04-30T09:51:10;17.00;1.00
3023;DHT22;1521;53.584;9.938;2023-04-30T09:53:41;17.10;1.00
3023;DHT22;1521;53.584;9.938;2023-04-30T09:56:10;17.30;1.00
3023;DHT22;1521;53.584;9.938;2023-04-30T09:58:37;17.20;1.00
3023;DHT22;1521;53.584;9.938;2023-04-30T10:01:04;16.90;1.00
3023;DHT22;1521;53.584;9.938;2023-04-30T10:03:31;16.90;1.00
3023;DHT22;1521;53.584;9.938;2023-04-30T10:05:58;17.40;1.00
3023;DHT22;1521;53.584;9.938;2023-04-30T10:08:30;17.80;1.00
3023;DHT22;1521;53.584;9.938;2023-04-30T10:11:07;18.40;1.00
3023;DHT22;1521;53.584;9.938;2023-04-30T10:13:41;18.30;99.90
3023;DHT22;1521;53.584;9.938;2023-04-30T10:16:13;17.80;99.90
3023;DHT22;1521;53.584;9.938;2023-04-30T10:18:44;17.50;99.90
3023;DHT22;1521;53.584;9.938;2023-04-30T10:21:12;17.20;99.90
3023;DHT22;1521;53.584;9.938;2023-04-30T10:23:39;17.40;99.90
3023;DHT22;1521;53.584;9.938;2023-04-30T10:26:11;17.30;99.90
3023;DHT22;1521;53.584;9.938;2023-04-30T10:28:37;17.10;99.90
3023;DHT22;1521;53.584;9.938;2023-04-30T10:31:05;17.20;99.90
3023;DHT22;1521;53.584;9.938;2023-04-30T10:33:58;17.50;99.90
3023;DHT22;1521;53.584;9.938;2023-04-30T10:36:34;18.30;99.90
3023;DHT22;1521;53.584;9.938;2023-04-30T10:39:04;19.10;99.90
3023;DHT22;1521;53.584;9.938;2023-04-30T10:41:30;19.20;99.90
3023;DHT22;1521;53.584;9.938;2023-04-30T10:43:57;19.40;99.90
3023;DHT22;1521;53.584;9.938;2023-04-30T10:46:24;19.60;99.90
3023;DHT22;1521;53.584;9.938;2023-04-30T10:48:52;19.50;99.90
3023;DHT22;1521;53.584;9.938;2023-04-30T10:51:19;19.70;99.90
3023;DHT22;1521;53.584;9.938;2023-04-30T10:53:49;19.90;99.90
3023;DHT22;1521;53.584;9.938;2023-04-30T10:56:31;20.20;99.90
3023;DHT22;1521;53.584;9.938;2023-04-30T10:59:00;20.00;99.90
3023;DHT22;1521;53.584;9.938;2023-04-30T11:01:29;19.80;99.90
3023;DHT22;1521;53.584;9.938;2023-04-30T11:04:07;19.80;99.90
3023;DHT22;1521;53.584;9.938;2023-04-30T11:09:23;20.20;99.90
3023;DHT22;1521;53.584;9.938;2023-04-30T11:12:03;20.60;99.90
3023;DHT22;1521;53.584;9.938;2023-04-30T11:14:31;20.80;99.90
3023;DHT22;1521;53.584;9.938;2023-04-30T11:16:58;20.70;99.90
3023;DHT22;1521;53.584;9.938;2023-04-30T11:19:26;20.80;99.90
3023;DHT22;1521;53.584;9.938;2023-04-30T11:27:35;20.90;99.90
3023;DHT22;1521;53.584;9.938;2023-04-30T11:30:03;20.90;99.90
3023;DHT22;1521;53.584;9.938;2023-04-30T11:32:34;20.90;99.90
3023;DHT22;1521;53.584;9.938;2023-04-30T11:35:01;20.80;99.90
3023;DHT22;1521;53.584;9.938;2023-04-30T11:37:29;20.60;99.90
3023;DHT22;1521;53.584;9.938;2023-04-30T11:40:06;20.90;99.90
3023;DHT22;1521;53.584;9.938;2023-04-30T11:42:32;21.30;99.90
3023;DHT22;1521;53.584;9.938;2023-04-30T11:47:55;21.70;99.90
3023;DHT22;1521;53.584;9.938;2023-04-30T11:50:23;21.70;99.90
3023;DHT22;1521;53.584;9.938;2023-04-30T11:52:56;21.40;99.90
3023;DHT22;1521;53.584;9.938;2023-04-30T11:55:24;21.60;99.90
3023;DHT22;1521;53.584;9.938;2023-04-30T11:57:54;21.70;99.90
3023;DHT22;1521;53.584;9.938;2023-04-30T12:00:25;21.50;99.90
3023;DHT22;1521;53.584;9.938;2023-04-30T12:02:52;21.80;99.90
3023;DHT22;1521;53.584;9.938;2023-04-30T12:05:20;22.00;99.90
3023;DHT22;1521;53.584;9.938;2023-04-30T12:08:03;21.90;99.90
3023;DHT22;1521;53.584;9.938;2023-04-30T12:10:31;21.80;99.90
3023;DHT22;1521;53.584;9.938;2023-04-30T12:12:56;21.70;99.90
3023;DHT22;1521;53.584;9.938;2023-04-30T12:15:23;21.50;99.90
3023;DHT22;1521;53.584;9.938;2023-04-30T12:17:55;21.10;99.90
3023;DHT22;1521;53.584;9.938;2023-04-30T12:20:23;21.30;99.90
3023;DHT22;1521;53.584;9.938;2023-04-30T12:22:49;21.50;99.90
3023;DHT22;1521;53.584;9.938;2023-04-30T12:25:16;21.80;99.90
3023;DHT22;1521;53.584;9.938;2023-04-30T12:27:47;22.10;99.90
3023;DHT22;1521;53.584;9.938;2023-04-30T12:30:13;22.10;99.90
3023;DHT22;1521;53.584;9.938;2023-04-30T12:32:43;22.20;99.90
3023;DHT22;1521;53.584;9.938;2023-04-30T12:35:20;21.90;99.90
3023;DHT22;1521;53.584;9.938;2023-04-30T12:37:48;22.20;99.90
3023;DHT22;1521;53.584;9.938;2023-04-30T12:40:19;22.50;99.90
3023;DHT22;1521;53.584;9.938;2023-04-30T12:42:45;22.60;99.90
3023;DHT22;1521;53.584;9.938;2023-04-30T12:45:51;22.30;99.90
3023;DHT22;1521;53.584;9.938;2023-04-30T12:48:22;21.90;99.90
3023;DHT22;1521;53.584;9.938;2023-04-30T12:50:58;22.20;99.90
3023;DHT22;1521;53.584;9.938;2023-04-30T12:53:25;21.90;99.90
3023;DHT22;1521;53.584;9.938;2023-04-30T12:56:11;22.10;99.90
3023;DHT22;1521;53.584;9.938;2023-04-30T12:58:38;22.10;99.90
3023;DHT22;1521;53.584;9.938;2023-04-30T13:01:04;22.30;99.90
3023;DHT22;1521;53.584;9.938;2023-04-30T13:03:29;22.50;99.90
3023;DHT22;1521;53.584;9.938;2023-04-30T13:05:55;22.20;99.90
3023;DHT22;1521;53.584;9.938;2023-04-30T13:08:22;22.30;99.90
3023;DHT22;1521;53.584;9.938;2023-04-30T13:10:49;22.30;99.90
3023;DHT22;1521;53.584;9.938;2023-04-30T13:13:16;22.60;99.90
3023;DHT22;1521;53.584;9.938;2023-04-30T13:15:42;22.40;99.90
3023;DHT22;1521;53.584;9.938;2023-04-30T13:18:08;22.40;99.90
3023;DHT22;1521;53.584;9.938;2023-04-30T13:20:37;22.30;99.90
3023;DHT22;1521;53.584;9.938;2023-04-30T13:23:04;21.90;99.90
3023;DHT22;1521;53.584;9.938;2023-04-30T13:25:31;21.90;99.90
3023;DHT22;1521;53.584;9.938;2023-04-30T13:27:57;22.10;99.90
3023;DHT22;1521;53.584;9.938;2023-04-30T13:30:23;22.00;99.90
3023;DHT22;1521;53.584;9.938;2023-04-30T13:32:48;21.80;99.90
3023;DHT22;1521;53.584;9.938;2023-04-30T13:35:15;22.10;99.90
3023;DHT22;1521;53.584;9.938;2023-04-30T13:37:40;21.80;99.90
3023;DHT22;1521;53.584;9.938;2023-04-30T13:40:07;21.70;99.90
3023;DHT22;1521;53.584;9.938;2023-04-30T13:42:35;21.70;99.90
3023;DHT22;1521;53.584;9.938;2023-04-30T13:45:01;21.60;99.90
3023;DHT22;1521;53.584;9.938;2023-04-30T13:47:26;21.50;99.90
3023;DHT22;1521;53.584;9.938;2023-04-30T13:49:52;21.60;99.90
3023;DHT22;1521;53.584;9.938;2023-04-30T13:52:17;21.60;99.90
3023;DHT22;1521;53.584;9.938;2023-04-30T13:54:43;21.60;99.90
3023;DHT22;1521;53.584;9.938;2023-04-30T13:57:09;21.60;99.90
3023;DHT22;1521;53.584;9.938;2023-04-30T13:59:34;21.50;99.90
3023;DHT22;1521;53.584;9.938;2023-04-30T14:02:00;21.60;99.90
3023;DHT22;1521;53.584;9.938;2023-04-30T14:04:25;21.80;99.90
3023;DHT22;1521;53.584;9.938;2023-04-30T14:06:51;21.80;99.90
3023;DHT22;1521;53.584;9.938;2023-04-30T14:09:21;21.80;99.90
3023;DHT22;1521;53.584;9.938;2023-04-30T14:11:46;21.50;99.90
3023;DHT22;1521;53.584;9.938;2023-04-30T14:14:12;21.10;99.90
3023;DHT22;1521;53.584;9.938;2023-04-30T14:16:38;21.10;99.90
3023;DHT22;1521;53.584;9.938;2023-04-30T14:19:03;20.80;99.90
3023;DHT22;1521;53.584;9.938;2023-04-30T14:21:29;20.70;99.90
3023;DHT22;1521;53.584;9.938;2023-04-30T14:23:55;20.80;99.90
3023;DHT22;1521;53.584;9.938;2023-04-30T14:26:21;20.70;99.90
3023;DHT22;1521;53.584;9.938;2023-04-30T14:28:47;20.60;99.90
3023;DHT22;1521;53.584;9.938;2023-04-30T14:31:12;20.50;99.90
3023;DHT22;1521;53.584;9.938;2023-04-30T14:33:38;20.50;99.90
3023;DHT22;1521;53.584;9.938;2023-04-30T14:36:04;20.60;99.90
3023;DHT22;1521;53.584;9.938;2023-04-30T14:38:30;20.30;99.90
3023;DHT22;1521;53.584;9.938;2023-04-30T14:40:55;20.20;99.90
3023;DHT22;1521;53.584;9.938;2023-04-30T14:43:21;20.00;99.90
3023;DHT22;1521;53.584;9.938;2023-04-30T14:45:48;19.70;99.90
3023;DHT22;1521;53.584;9.938;2023-04-30T14:48:13;19.70;99.90
3023;DHT22;1521;53.584;9.938;2023-04-30T14:50:39;19.70;99.90
3023;DHT22;1521;53.584;9.938;2023-04-30T14:53:05;19.70;99.90
3023;DHT22;1521;53.584;9.938;2023-04-30T14:55:31;19.80;99.90
3023;DHT22;1521;53.584;9.938;2023-04-30T14:57:57;20.00;99.90
3023;DHT22;1521;53.584;9.938;2023-04-30T15:00:23;19.90;99.90
3023;DHT22;1521;53.584;9.938;2023-04-30T15:02:49;19.70;99.90
3023;DHT22;1521;53.584;9.938;2023-04-30T15:05:15;19.50;99.90
3023;DHT22;1521;53.584;9.938;2023-04-30T15:07:40;19.30;99.90
3023;DHT22;1521;53.584;9.938;2023-04-30T15:10:07;19.30;99.90
3023;DHT22;1521;53.584;9.938;2023-04-30T15:12:33;19.20;99.90
3023;DHT22;1521;53.584;9.938;2023-04-30T15:15:00;19.10;99.90
3023;DHT22;1521;53.584;9.938;2023-04-30T15:17:26;19.10;99.90
3023;DHT22;1521;53.584;9.938;2023-04-30T15:19:52;18.90;99.90
3023;DHT22;1521;53.584;9.938;2023-04-30T15:22:19;19.00;99.90
3023;DHT22;1521;53.584;9.938;2023-04-30T15:24:45;19.00;99.90
3023;DHT22;1521;53.584;9.938;2023-04-30T15:27:10;19.20;99.90
3023;DHT22;1521;53.584;9.938;2023-04-30T15:29:38;19.20;99.90
3023;DHT22;1521;53.584;9.938;2023-04-30T15:32:04;19.20;99.90
3023;DHT22;1521;53.584;9.938;2023-04-30T15:34:30;19.30;99.90
3023;DHT22;1521;53.584;9.938;2023-04-30T15:36:56;19.10;99.90
3023;DHT22;1521;53.584;9.938;2023-04-30T15:39:23;18.90;99.90
3023;DHT22;1521;53.584;9.938;2023-04-30T15:41:49;18.70;99.90
3023;DHT22;1521;53.584;9.938;2023-04-30T15:44:14;18.70;99.90
3023;DHT22;1521;53.584;9.938;2023-04-30T15:46:40;18.70;99.90
3023;DHT22;1521;53.584;9.938;2023-04-30T15:49:06;18.60;99.90
3023;DHT22;1521;53.584;9.938;2023-04-30T15:51:31;18.50;99.90
3023;DHT22;1521;53.584;9.938;2023-04-30T15:53:57;18.30;99.90
3023;DHT22;1521;53.584;9.938;2023-04-30T15:56:23;18.30;99.90
3023;DHT22;1521;53.584;9.938;2023-04-30T15:58:52;18.30;99.90
3023;DHT22;1521;53.584;9.938;2023-04-30T16:01:18;18.20;99.90
3023;DHT22;1521;53.584;9.938;2023-04-30T16:03:44;18.10;99.90
3023;DHT22;1521;53.584;9.938;2023-04-30T16:06:09;18.10;99.90
3023;DHT22;1521;53.584;9.938;2023-04-30T16:08:35;18.00;99.90
3023;DHT22;1521;53.584;9.938;2023-04-30T16:11:02;17.70;99.90
3023;DHT22;1521;53.584;9.938;2023-04-30T16:13:28;17.50;99.90
3023;DHT22;1521;53.584;9.938;2023-04-30T16:15:54;17.30;99.90
3023;DHT22;1521;53.584;9.938;2023-04-30T16:18:19;17.10;99.90
3023;DHT22;1521;53.584;9.938;2023-04-30T16:20:46;16.90;99.90
3023;DHT22;1521;53.584;9.938;2023-04-30T16:23:13;16.80;99.90
3023;DHT22;1521;53.584;9.938;2023-04-30T16:25:38;16.50;99.90
3023;DHT22;1521;53.584;9.938;2023-04-30T16:28:04;16.50;99.90
3023;DHT22;1521;53.584;9.938;2023-04-30T16:30:30;16.30;99.90
3023;DHT22;1521;53.584;9.938;2023-04-30T16:32:56;15.80;99.90
3023;DHT22;1521;53.584;9.938;2023-04-30T16:35:22;15.60;99.90
3023;DHT22;1521;53.584;9.938;2023-04-30T16:37:47;15.50;99.90
3023;DHT22;1521;53.584;9.938;2023-04-30T16:40:13;15.40;99.90
3023;DHT22;1521;53.584;9.938;2023-04-30T16:42:38;15.00;99.90
3023;DHT22;1521;53.584;9.938;2023-04-30T16:45:05;14.90;99.90
3023;DHT22;1521;53.584;9.938;2023-04-30T16:47:30;14.90;99.90